createdAt,value
2023-02-28T00:01:28.411Z,2.01
2023-02-28T00:03:55.193Z,2.00
2023-02-28T00:06:21.993Z,2.00
2023-02-28T00:08:49.224Z,1.97
2023-02-28T00:11:17.008Z,1.98
2023-02-28T00:13:49.319Z,1.94
2023-02-28T00:16:21.722Z,1.91
2023-02-28T00:18:48.822Z,1.89
2023-02-28T00:21:16.444Z,1.87
2023-02-28T00:23:43.077Z,1.87
2023-02-28T00:26:09.663Z,1.86
2023-02-28T00:28:36.430Z,1.86
2023-02-28T00:31:04.086Z,1.86
2023-02-28T00:33:31.161Z,1.86
2023-02-28T00:36:08.743Z,1.85
2023-02-28T00:38:36.205Z,1.86
2023-02-28T00:41:05.833Z,1.83
2023-02-28T00:43:34.920Z,1.83
2023-02-28T00:46:02.178Z,1.79
2023-02-28T00:48:28.993Z,1.77
2023-02-28T00:50:55.706Z,1.76
2023-02-28T00:53:23.092Z,1.76
2023-02-28T00:55:51.039Z,1.75
2023-02-28T00:58:17.641Z,1.71
2023-02-28T01:00:44.181Z,1.70
2023-02-28T01:03:10.844Z,1.69
2023-02-28T01:05:37.383Z,1.66
2023-02-28T01:08:04.162Z,1.64
2023-02-28T01:10:33.048Z,1.66
2023-02-28T01:12:59.714Z,1.59
2023-02-28T01:15:26.330Z,1.59
2023-02-28T01:17:52.887Z,1.59
2023-02-28T01:20:19.565Z,1.60
2023-02-28T01:22:46.803Z,1.53
2023-02-28T01:25:13.896Z,1.53
2023-02-28T01:27:40.678Z,1.50
2023-02-28T01:30:09.930Z,1.49
2023-02-28T01:32:37.673Z,1.49
2023-02-28T01:35:04.849Z,1.50
2023-02-28T01:37:31.475Z,1.46
2023-02-28T01:39:57.996Z,1.45
2023-02-28T01:42:24.527Z,1.42
2023-02-28T01:45:17.905Z,1.40
2023-02-28T01:47:46.249Z,1.40
2023-02-28T01:50:26.381Z,1.39
2023-02-28T01:52:54.660Z,1.37
2023-02-28T01:55:22.841Z,1.34
2023-02-28T01:57:57.487Z,1.33
2023-02-28T02:00:28.866Z,1.32
2023-02-28T02:03:04.324Z,1.29
2023-02-28T02:05:36.880Z,1.29
2023-02-28T02:08:06.462Z,1.29
2023-02-28T02:10:55.106Z,1.23
2023-02-28T02:14:03.700Z,1.21
2023-02-28T02:16:39.899Z,1.18
2023-02-28T02:19:21.886Z,1.15
2023-02-28T02:22:01.644Z,1.17
2023-02-28T02:24:40.137Z,1.18
2023-02-28T02:27:25.916Z,1.20
2023-02-28T02:30:18.644Z,1.21
2023-02-28T02:33:07.280Z,1.19
2023-02-28T02:35:47.910Z,1.19
2023-02-28T02:38:31.035Z,1.17
2023-02-28T02:41:20.080Z,1.15
2023-02-28T02:43:52.928Z,1.19
2023-02-28T02:46:30.928Z,1.16
2023-02-28T02:49:04.460Z,1.13
2023-02-28T02:51:33.778Z,1.11
2023-02-28T02:54:09.883Z,1.14
2023-02-28T02:56:40.646Z,1.13
2023-02-28T02:59:11.231Z,1.15
2023-02-28T03:01:39.126Z,1.11
2023-02-28T03:04:12.237Z,1.11
2023-02-28T03:06:38.806Z,1.09
2023-02-28T03:09:05.642Z,1.08
2023-02-28T03:11:33.566Z,1.05
2023-02-28T03:14:31.479Z,1.04
2023-02-28T03:17:19.113Z,1.05
2023-02-28T03:20:08.350Z,1.05
2023-02-28T03:23:04.108Z,1.06
2023-02-28T03:25:33.367Z,1.00
2023-02-28T03:28:16.943Z,0.97
2023-02-28T03:30:49.574Z,0.96
2023-02-28T03:33:21.113Z,0.94
2023-02-28T03:36:01.114Z,0.91
2023-02-28T03:38:38.939Z,0.94
2023-02-28T03:41:48.919Z,0.96
2023-02-28T03:44:23.024Z,0.96
2023-02-28T03:46:59.368Z,0.94
2023-02-28T03:49:33.664Z,0.94
2023-02-28T03:52:04.138Z,0.91
2023-02-28T03:54:40.597Z,0.89
2023-02-28T03:57:14.875Z,0.84
2023-02-28T03:59:47.144Z,0.78
2023-02-28T04:02:13.805Z,0.78
2023-02-28T04:04:46.140Z,0.75
2023-02-28T04:07:13.272Z,0.75
2023-02-28T04:09:39.885Z,0.76
2023-02-28T04:12:09.860Z,0.74
2023-02-28T04:14:36.450Z,0.73
2023-02-28T04:17:03.040Z,0.66
2023-02-28T04:19:29.608Z,0.69
2023-02-28T04:21:56.578Z,0.68
2023-02-28T04:24:25.762Z,0.63
2023-02-28T04:26:54.953Z,0.66
2023-02-28T04:29:35.559Z,0.67
2023-02-28T04:32:03.787Z,0.68
2023-02-28T04:34:32.541Z,0.68
2023-02-28T04:37:13.762Z,0.68
2023-02-28T04:39:41.576Z,0.73
2023-02-28T04:42:08.341Z,0.68
2023-02-28T04:44:35.234Z,0.68
2023-02-28T04:47:01.872Z,0.63
2023-02-28T04:49:28.482Z,0.66
2023-02-28T04:51:55.082Z,0.67
2023-02-28T04:54:21.649Z,0.65
2023-02-28T04:56:50.851Z,0.67
2023-02-28T04:59:17.701Z,0.64
2023-02-28T05:01:48.773Z,0.62
2023-02-28T05:04:15.993Z,0.61
2023-02-28T05:06:43.190Z,0.60
2023-02-28T05:09:12.284Z,0.58
2023-02-28T05:11:40.102Z,0.57
2023-02-28T05:14:12.014Z,0.54
2023-02-28T05:16:39.643Z,0.53
2023-02-28T05:19:06.383Z,0.55
2023-02-28T05:24:16.238Z,0.54
2023-02-28T05:26:44.146Z,0.49
2023-02-28T05:29:11.317Z,0.48
2023-02-28T05:31:39.386Z,0.47
2023-02-28T05:34:06.280Z,0.51
2023-02-28T05:36:33.354Z,0.54
2023-02-28T05:38:59.975Z,0.59
2023-02-28T05:41:27.587Z,0.63
2023-02-28T05:43:54.466Z,0.63
2023-02-28T05:46:20.995Z,0.61
2023-02-28T05:48:49.009Z,0.62
2023-02-28T05:51:15.860Z,0.66
2023-02-28T05:53:42.514Z,0.67
2023-02-28T05:56:09.107Z,0.66
2023-02-28T05:58:35.841Z,0.68
2023-02-28T06:01:32.281Z,0.73
2023-02-28T06:04:01.655Z,0.67
2023-02-28T06:06:29.269Z,0.66
2023-02-28T06:08:56.657Z,0.67
2023-02-28T06:11:28.314Z,0.69
2023-02-28T06:13:58.689Z,0.76
2023-02-28T06:16:25.745Z,0.79
2023-02-28T06:18:53.684Z,0.78
2023-02-28T06:21:20.661Z,0.80
2023-02-28T06:23:47.382Z,0.83
2023-02-28T06:26:13.959Z,0.87
2023-02-28T06:28:41.287Z,0.86
2023-02-28T06:31:16.097Z,0.89
2023-02-28T06:33:44.219Z,0.90
2023-02-28T06:36:12.095Z,0.92
2023-02-28T06:38:38.672Z,0.91
2023-02-28T06:41:06.620Z,0.91
2023-02-28T06:43:36.812Z,0.95
2023-02-28T06:46:05.633Z,0.97
2023-02-28T06:48:33.368Z,0.97
2023-02-28T06:51:06.353Z,1.05
2023-02-28T06:53:33.469Z,1.10
2023-02-28T06:56:00.510Z,1.12
2023-02-28T06:58:27.041Z,1.06
2023-02-28T07:00:54.040Z,1.06
2023-02-28T07:03:20.826Z,1.11
2023-02-28T07:05:47.716Z,1.16
2023-02-28T07:08:14.358Z,1.19
2023-02-28T07:10:42.048Z,1.26
2023-02-28T07:13:09.905Z,1.24
2023-02-28T07:15:40.660Z,1.28
2023-02-28T07:18:08.529Z,1.33
2023-02-28T07:20:35.081Z,1.37
2023-02-28T07:23:01.783Z,1.44
2023-02-28T07:25:30.251Z,1.49
2023-02-28T07:27:57.514Z,1.54
2023-02-28T07:30:24.051Z,1.56
2023-02-28T07:32:50.603Z,1.63
2023-02-28T07:35:17.278Z,1.67
2023-02-28T07:37:44.174Z,1.76
2023-02-28T07:40:15.690Z,1.76
2023-02-28T07:42:42.656Z,1.85
2023-02-28T07:45:12.775Z,1.79
2023-02-28T07:47:40.263Z,1.90
2023-02-28T07:50:08.708Z,2.01
2023-02-28T07:52:38.119Z,1.91
2023-02-28T07:55:06.761Z,1.86
2023-02-28T07:57:36.521Z,1.89
2023-02-28T08:00:07.187Z,1.91
2023-02-28T08:02:33.999Z,2.05
2023-02-28T08:05:01.021Z,2.01
2023-02-28T08:07:28.022Z,1.80
2023-02-28T08:09:54.576Z,1.83
2023-02-28T08:12:21.272Z,1.98
2023-02-28T08:14:47.813Z,2.08
2023-02-28T08:17:14.550Z,2.11
2023-02-28T08:19:41.040Z,2.07
2023-02-28T08:22:07.614Z,2.07
2023-02-28T08:24:34.447Z,2.20
2023-02-28T08:27:00.952Z,2.24
2023-02-28T08:29:27.474Z,2.33
2023-02-28T08:31:54.206Z,2.35
2023-02-28T08:34:20.812Z,2.31
2023-02-28T08:36:47.415Z,2.46
2023-02-28T08:39:13.998Z,2.46
2023-02-28T08:41:40.645Z,2.53
2023-02-28T08:44:07.799Z,2.65
2023-02-28T08:46:34.523Z,2.62
2023-02-28T08:49:02.516Z,2.68
2023-02-28T08:51:30.266Z,2.68
2023-02-28T08:54:03.208Z,2.57
2023-02-28T08:56:29.726Z,2.62
2023-02-28T08:58:57.976Z,2.67
2023-02-28T09:01:29.920Z,2.69
2023-02-28T09:06:45.470Z,2.74
2023-02-28T09:09:12.098Z,2.71
2023-02-28T09:11:38.798Z,2.71
2023-02-28T09:14:05.404Z,2.83
2023-02-28T09:16:33.840Z,2.93
2023-02-28T09:19:00.885Z,3.06
2023-02-28T09:21:27.938Z,2.99
2023-02-28T09:23:55.014Z,2.88
2023-02-28T09:26:24.670Z,2.90
2023-02-28T09:28:52.389Z,2.86
2023-02-28T09:31:24.233Z,2.89
2023-02-28T09:33:52.547Z,2.90
2023-02-28T09:36:19.994Z,2.90
2023-02-28T09:38:48.751Z,3.05
2023-02-28T09:41:20.840Z,3.09
2023-02-28T09:43:53.344Z,3.07
2023-02-28T09:46:35.494Z,3.12
2023-02-28T09:49:07.601Z,3.02
2023-02-28T09:51:43.837Z,3.16
2023-02-28T09:54:25.259Z,3.06
2023-02-28T09:57:00.833Z,3.04
2023-02-28T09:59:39.584Z,3.13
2023-02-28T10:02:31.180Z,3.15
2023-02-28T10:05:00.969Z,3.14
2023-02-28T10:07:45.859Z,3.16
2023-02-28T10:10:39.608Z,3.10
2023-02-28T10:13:21.808Z,3.09
2023-02-28T10:15:53.722Z,3.13
2023-02-28T10:18:26.385Z,3.27
2023-02-28T10:20:56.849Z,3.21
2023-02-28T10:23:38.564Z,3.15
2023-02-28T10:26:14.384Z,3.17
2023-02-28T10:28:41.390Z,3.18
2023-02-28T10:31:17.846Z,3.13
2023-02-28T10:33:44.963Z,3.16
2023-02-28T10:36:20.230Z,3.19
2023-02-28T10:38:47.851Z,3.17
2023-02-28T10:41:29.292Z,3.26
2023-02-28T10:44:23.531Z,3.27
2023-02-28T10:46:51.709Z,3.22
2023-02-28T10:49:22.096Z,3.14
2023-02-28T10:51:54.189Z,3.15
2023-02-28T10:54:29.178Z,3.14
2023-02-28T10:57:16.692Z,3.21
2023-02-28T10:59:43.310Z,3.25
2023-02-28T11:02:37.293Z,3.38
2023-02-28T11:05:22.970Z,3.47
2023-02-28T11:08:06.811Z,3.55
2023-02-28T11:10:35.821Z,3.62
2023-02-28T11:13:03.284Z,3.79
2023-02-28T11:15:35.216Z,3.89
2023-02-28T11:18:03.446Z,3.95
2023-02-28T11:20:33.713Z,3.97
2023-02-28T11:23:03.065Z,4.02
2023-02-28T11:25:39.133Z,4.00
2023-02-28T11:28:35.514Z,3.88
2023-02-28T11:31:17.509Z,3.81
2023-02-28T11:33:52.215Z,3.68
2023-02-28T11:36:29.239Z,3.62
2023-02-28T11:39:02.844Z,3.62
2023-02-28T11:41:55.445Z,3.68
2023-02-28T11:44:44.844Z,3.79
2023-02-28T11:47:43.542Z,3.86
2023-02-28T11:50:19.727Z,3.87
2023-02-28T11:52:54.930Z,3.96
2023-02-28T11:55:28.936Z,3.90
2023-02-28T11:58:17.896Z,3.88
2023-02-28T12:01:02.842Z,3.76
2023-02-28T12:03:44.467Z,3.76
2023-02-28T12:06:32.748Z,3.84
2023-02-28T12:09:22.274Z,3.87
2023-02-28T12:11:57.166Z,3.89
2023-02-28T12:14:32.944Z,3.92
2023-02-28T12:17:33.649Z,3.97
2023-02-28T12:20:26.702Z,3.98
2023-02-28T12:23:12.146Z,4.04
2023-02-28T12:26:21.105Z,4.07
2023-02-28T12:28:52.198Z,4.13
2023-02-28T12:31:24.090Z,4.17
2023-02-28T12:34:13.170Z,4.15
2023-02-28T12:36:42.724Z,4.17
2023-02-28T12:39:24.625Z,4.19
2023-02-28T12:42:10.774Z,4.10
2023-02-28T12:44:40.377Z,4.02
2023-02-28T12:47:14.653Z,4.08
2023-02-28T12:49:50.244Z,4.20
2023-02-28T12:52:23.465Z,4.13
2023-02-28T12:54:50.034Z,4.16
2023-02-28T12:57:33.755Z,4.18
2023-02-28T13:00:18.203Z,4.20
2023-02-28T13:03:14.089Z,4.32
2023-02-28T13:06:03.625Z,4.34
2023-02-28T13:08:56.186Z,4.27
2023-02-28T13:11:26.892Z,4.34
2023-02-28T13:14:02.269Z,4.26
2023-02-28T13:16:29.359Z,4.29
2023-02-28T13:19:11.473Z,4.26
2023-02-28T13:21:45.648Z,4.27
2023-02-28T13:24:37.751Z,4.35
2023-02-28T13:27:04.259Z,4.39
2023-02-28T13:29:41.807Z,4.40
2023-02-28T13:32:08.957Z,4.44
2023-02-28T13:35:05.509Z,4.51
2023-02-28T13:37:42.632Z,4.56
2023-02-28T13:40:11.986Z,4.61
2023-02-28T13:42:50.850Z,4.65
2023-02-28T13:45:28.969Z,4.60
2023-02-28T13:48:02.766Z,4.57
2023-02-28T13:50:41.200Z,4.52
2023-02-28T13:53:14.072Z,4.51
2023-02-28T13:55:59.616Z,4.52
2023-02-28T13:58:38.549Z,4.52
2023-02-28T14:01:14.366Z,4.49
2023-02-28T14:04:08.098Z,4.43
2023-02-28T14:06:36.604Z,4.42
2023-02-28T14:09:12.857Z,4.47
2023-02-28T14:11:41.866Z,4.47
2023-02-28T14:14:10.933Z,4.42
2023-02-28T14:16:42.099Z,4.43
2023-02-28T14:19:25.144Z,4.44
2023-02-28T14:22:09.008Z,4.41
2023-02-28T14:24:51.109Z,4.45
2023-02-28T14:27:23.630Z,4.40
2023-02-28T14:30:23.066Z,4.40
2023-02-28T14:33:05.622Z,4.41
2023-02-28T14:35:56.102Z,4.41
2023-02-28T14:38:36.289Z,4.41
2023-02-28T14:41:07.897Z,4.41
2023-02-28T14:43:34.385Z,4.45
2023-02-28T14:46:04.395Z,4.47
2023-02-28T14:48:31.504Z,4.50
2023-02-28T14:51:01.010Z,4.45
2023-02-28T14:53:32.077Z,4.46
2023-02-28T14:55:59.061Z,4.45
2023-02-28T14:58:28.771Z,4.39
2023-02-28T15:00:58.547Z,4.41
2023-02-28T15:03:35.533Z,4.40
2023-02-28T15:06:05.502Z,4.39
2023-02-28T15:08:36.882Z,4.37
2023-02-28T15:11:07.945Z,4.33
2023-02-28T15:13:47.270Z,4.30
2023-02-28T15:16:20.308Z,4.32
2023-02-28T15:18:53.747Z,4.31
2023-02-28T15:21:28.066Z,4.31
2023-02-28T15:24:01.129Z,4.30
2023-02-28T15:26:32.860Z,4.26
2023-02-28T15:29:07.112Z,4.26
2023-02-28T15:31:56.125Z,4.31
2023-02-28T15:34:42.194Z,4.32
2023-02-28T15:37:34.313Z,4.31
2023-02-28T15:40:22.858Z,4.25
2023-02-28T15:43:07.129Z,4.26
2023-02-28T15:45:47.204Z,4.23
2023-02-28T15:48:21.935Z,4.21
2023-02-28T15:50:52.557Z,4.22
2023-02-28T15:53:27.148Z,4.19
2023-02-28T15:55:58.459Z,4.21
2023-02-28T15:58:25.905Z,4.18
2023-02-28T16:01:19.756Z,4.16
2023-02-28T16:03:49.812Z,4.15
2023-02-28T16:06:43.181Z,4.15
2023-02-28T16:09:12.642Z,4.11
2023-02-28T16:11:51.738Z,4.10
2023-02-28T16:14:31.019Z,4.12
2023-02-28T16:17:04.784Z,4.11
2023-02-28T16:19:33.847Z,4.17
2023-02-28T16:22:01.284Z,4.13
2023-02-28T16:24:28.218Z,4.11
2023-02-28T16:26:56.949Z,4.08
2023-02-28T16:29:30.728Z,4.06
2023-02-28T16:31:57.621Z,4.04
2023-02-28T16:34:24.724Z,4.04
2023-02-28T16:36:52.503Z,4.00
2023-02-28T16:39:21.707Z,4.02
2023-02-28T16:41:50.082Z,4.02
2023-02-28T16:44:30.664Z,3.98
2023-02-28T16:46:57.302Z,3.95
2023-02-28T16:49:23.916Z,3.95
2023-02-28T16:51:50.358Z,3.93
2023-02-28T16:54:16.876Z,3.90
2023-02-28T16:56:46.924Z,3.86
2023-02-28T16:59:15.981Z,3.83
2023-02-28T17:01:42.540Z,3.85
2023-02-28T17:04:11.716Z,3.80
2023-02-28T17:06:38.981Z,3.78
2023-02-28T17:09:05.575Z,3.75
2023-02-28T17:11:32.471Z,3.74
2023-02-28T17:13:59.136Z,3.73
2023-02-28T17:16:31.120Z,3.72
2023-02-28T17:19:00.921Z,3.70
2023-02-28T17:21:28.168Z,3.67
2023-02-28T17:23:54.949Z,3.67
2023-02-28T17:26:22.524Z,3.65
2023-02-28T17:28:50.224Z,3.66
2023-02-28T17:31:16.868Z,3.67
2023-02-28T17:33:43.770Z,3.64
2023-02-28T17:36:15.605Z,3.61
2023-02-28T17:38:42.452Z,3.62
2023-02-28T17:41:12.042Z,3.59
2023-02-28T17:43:38.625Z,3.56
2023-02-28T17:46:08.478Z,3.54
2023-02-28T17:48:36.810Z,3.52
2023-02-28T17:51:03.540Z,3.52
2023-02-28T17:53:29.986Z,3.51
2023-02-28T17:55:56.467Z,3.49
2023-02-28T17:58:22.985Z,3.49
2023-02-28T18:00:54.730Z,3.47
2023-02-28T18:03:21.832Z,3.44
2023-02-28T18:05:48.852Z,3.45
2023-02-28T18:08:16.156Z,3.43
2023-02-28T18:10:42.639Z,3.42
2023-02-28T18:13:09.415Z,3.40
2023-02-28T18:15:35.966Z,3.42
2023-02-28T18:18:03.371Z,3.40
2023-02-28T18:20:30.064Z,3.39
2023-02-28T18:22:56.652Z,3.39
2023-02-28T18:25:23.504Z,3.39
2023-02-28T18:27:59.162Z,3.37
2023-02-28T18:30:31.730Z,3.37
2023-02-28T18:32:59.772Z,3.35
2023-02-28T18:35:36.301Z,3.34
2023-02-28T18:38:07.450Z,3.34
2023-02-28T18:40:33.915Z,3.34
2023-02-28T18:43:01.480Z,3.31
2023-02-28T18:45:28.161Z,3.28
2023-02-28T18:47:54.737Z,3.27
2023-02-28T18:50:21.437Z,3.24
2023-02-28T18:52:48.280Z,3.22
2023-02-28T18:55:18.808Z,3.22
2023-02-28T18:57:47.213Z,3.18
2023-02-28T19:00:15.766Z,3.18
2023-02-28T19:02:43.114Z,3.18
2023-02-28T19:05:11.638Z,3.18
2023-02-28T19:07:38.664Z,3.16
2023-02-28T19:10:05.672Z,3.17
2023-02-28T19:12:36.502Z,3.16
2023-02-28T19:15:07.015Z,3.13
2023-02-28T19:17:33.846Z,3.11
2023-02-28T19:20:00.413Z,3.13
2023-02-28T19:22:26.910Z,3.10
2023-02-28T19:24:53.509Z,3.08
2023-02-28T19:27:20.055Z,3.06
2023-02-28T19:29:52.120Z,3.07
2023-02-28T19:32:20.608Z,3.06
2023-02-28T19:34:47.506Z,3.02
2023-02-28T19:37:14.716Z,3.07
2023-02-28T19:39:44.338Z,3.06
2023-02-28T19:42:13.622Z,3.06
2023-02-28T19:44:40.425Z,3.03
2023-02-28T19:47:08.357Z,2.99
2023-02-28T19:49:35.016Z,2.96
2023-02-28T19:52:01.615Z,2.97
2023-02-28T19:54:28.631Z,2.96
2023-02-28T19:56:57.536Z,2.94
2023-02-28T19:59:36.126Z,2.93
2023-02-28T20:02:05.497Z,2.90
2023-02-28T20:04:32.166Z,2.88
2023-02-28T20:06:58.668Z,2.84
2023-02-28T20:09:25.222Z,2.82
2023-02-28T20:11:52.066Z,2.82
2023-02-28T20:14:18.702Z,2.81
2023-02-28T20:16:45.753Z,2.81
2023-02-28T20:19:13.266Z,2.79
2023-02-28T20:21:41.459Z,2.78
2023-02-28T20:24:08.120Z,2.76
2023-02-28T20:26:34.996Z,2.77
2023-02-28T20:29:01.671Z,2.77
2023-02-28T20:31:28.798Z,2.77
2023-02-28T20:33:55.330Z,2.75
2023-02-28T20:36:23.494Z,2.73
2023-02-28T20:38:52.019Z,2.69
2023-02-28T20:41:18.960Z,2.71
2023-02-28T20:43:46.066Z,2.72
2023-02-28T20:46:12.634Z,2.70
2023-02-28T20:48:40.667Z,2.69
2023-02-28T20:51:07.848Z,2.67
2023-02-28T20:53:36.084Z,2.63
2023-02-28T20:56:13.700Z,2.61
2023-02-28T20:58:40.340Z,2.58
2023-02-28T21:01:17.568Z,2.55
2023-02-28T21:03:48.985Z,2.54
2023-02-28T21:06:17.563Z,2.53
2023-02-28T21:08:44.305Z,2.51
2023-02-28T21:11:13.916Z,2.48
2023-02-28T21:13:41.933Z,2.46
2023-02-28T21:16:11.722Z,2.43
2023-02-28T21:18:39.066Z,2.44
2023-02-28T21:21:08.328Z,2.43
2023-02-28T21:23:34.853Z,2.39
2023-02-28T21:26:13.270Z,2.37
2023-02-28T21:28:46.634Z,2.32
2023-02-28T21:31:16.135Z,2.31
2023-02-28T21:33:43.640Z,2.31
2023-02-28T21:36:13.236Z,2.31
2023-02-28T21:38:40.653Z,2.34
2023-02-28T21:41:08.083Z,2.33
2023-02-28T21:43:35.025Z,2.31
2023-02-28T21:46:09.908Z,2.28
2023-02-28T21:48:37.532Z,2.28
2023-02-28T21:51:07.793Z,2.27
2023-02-28T21:53:36.429Z,2.24
2023-02-28T21:56:05.265Z,2.22
2023-02-28T21:58:32.264Z,2.20
2023-02-28T22:01:13.604Z,2.19
2023-02-28T22:03:40.434Z,2.19
2023-02-28T22:06:33.754Z,2.19
2023-02-28T22:09:03.011Z,2.17
2023-02-28T22:11:29.601Z,2.18
2023-02-28T22:13:57.877Z,2.16
2023-02-28T22:16:28.141Z,2.15
2023-02-28T22:18:55.885Z,2.14
2023-02-28T22:21:23.573Z,2.13
2023-02-28T22:23:50.398Z,2.13
2023-02-28T22:26:20.210Z,2.14
2023-02-28T22:28:47.137Z,2.12
2023-02-28T22:31:28.074Z,2.11
2023-02-28T22:33:57.923Z,2.07
2023-02-28T22:36:25.241Z,2.05
2023-02-28T22:38:52.676Z,2.04
2023-02-28T22:41:22.227Z,2.02
2023-02-28T22:43:54.858Z,2.00
2023-02-28T22:46:23.499Z,1.98
2023-02-28T22:48:50.609Z,1.96
2023-02-28T22:51:20.842Z,1.96
2023-02-28T22:53:49.007Z,1.92
2023-02-28T22:56:17.751Z,1.91
2023-02-28T22:58:48.286Z,1.90
2023-02-28T23:01:16.672Z,1.88
2023-02-28T23:03:43.764Z,1.88
2023-02-28T23:06:21.218Z,1.89
2023-02-28T23:08:48.052Z,1.86
2023-02-28T23:11:21.417Z,1.85
2023-02-28T23:13:58.679Z,1.80
2023-02-28T23:16:35.356Z,1.83
2023-02-28T23:19:05.735Z,1.81
2023-02-28T23:21:32.589Z,1.78
2023-02-28T23:24:02.774Z,1.78
2023-02-28T23:26:31.384Z,1.75
2023-02-28T23:28:58.488Z,1.75
2023-02-28T23:31:25.232Z,1.70
2023-02-28T23:33:51.740Z,1.73
2023-02-28T23:36:18.752Z,1.71
2023-02-28T23:38:50.516Z,1.71
2023-02-28T23:41:18.012Z,1.71
2023-02-28T23:43:44.850Z,1.69
2023-02-28T23:46:12.950Z,1.68
2023-02-28T23:48:40.691Z,1.66
2023-02-28T23:51:10.207Z,1.65
2023-02-28T23:53:41.970Z,1.63
2023-02-28T23:56:10.416Z,1.62
2023-02-28T23:58:37.348Z,1.62
